sensor_id;sensor_type;location;lat;lon;timestamp;P1;durP1;ratioP1;P2;durP2;ratioP2
20623;SDS011;10471;42.736;23.346;2023-11-21T00:00:01;128.13;;;56.80;;
20623;SDS011;10471;42.736;23.346;2023-11-21T00:02:29;122.40;;;56.00;;
20623;SDS011;10471;42.736;23.346;2023-11-21T00:04:54;125.20;;;56.33;;
20623;SDS011;10471;42.736;23.346;2023-11-21T00:07:20;128.97;;;59.57;;
20623;SDS011;10471;42.736;23.346;2023-11-21T00:09:46;120.00;;;58.27;;
20623;SDS011;10471;42.736;23.346;2023-11-21T00:12:12;131.37;;;60.37;;
20623;SDS011;10471;42.736;23.346;2023-11-21T00:14:38;134.23;;;61.17;;
20623;SDS011;10471;42.736;23.346;2023-11-21T00:23:17;131.43;;;58.00;;
20623;SDS011;10471;42.736;23.346;2023-11-21T00:25:43;134.90;;;60.03;;
20623;SDS011;10471;42.736;23.346;2023-11-21T00:28:09;140.40;;;62.60;;
20623;SDS011;10471;42.736;23.346;2023-11-21T00:30:34;146.50;;;61.93;;
20623;SDS011;10471;42.736;23.346;2023-11-21T00:33:00;136.40;;;60.80;;
20623;SDS011;10471;42.736;23.346;2023-11-21T00:35:25;137.37;;;63.53;;
20623;SDS011;10471;42.736;23.346;2023-11-21T00:37:51;137.10;;;62.77;;
20623;SDS011;10471;42.736;23.346;2023-11-21T00:40:17;134.63;;;63.63;;
20623;SDS011;10471;42.736;23.346;2023-11-21T00:42:46;250.50;;;91.73;;
20623;SDS011;10471;42.736;23.346;2023-11-21T00:45:12;101.43;;;45.87;;
20623;SDS011;10471;42.736;23.346;2023-11-21T00:47:37;106.17;;;47.00;;
20623;SDS011;10471;42.736;23.346;2023-11-21T00:50:04;121.20;;;55.07;;
20623;SDS011;10471;42.736;23.346;2023-11-21T00:52:31;183.87;;;72.97;;
20623;SDS011;10471;42.736;23.346;2023-11-21T00:54:57;169.10;;;67.93;;
20623;SDS011;10471;42.736;23.346;2023-11-21T00:57:25;164.80;;;65.13;;
20623;SDS011;10471;42.736;23.346;2023-11-21T00:59:51;161.03;;;66.80;;
20623;SDS011;10471;42.736;23.346;2023-11-21T01:02:17;151.27;;;60.27;;
20623;SDS011;10471;42.736;23.346;2023-11-21T01:04:42;138.03;;;57.60;;
20623;SDS011;10471;42.736;23.346;2023-11-21T01:07:08;142.97;;;58.67;;
20623;SDS011;10471;42.736;23.346;2023-11-21T01:09:34;125.40;;;55.03;;
20623;SDS011;10471;42.736;23.346;2023-11-21T01:11:59;141.93;;;59.90;;
20623;SDS011;10471;42.736;23.346;2023-11-21T01:14:25;141.00;;;61.80;;
20623;SDS011;10471;42.736;23.346;2023-11-21T01:16:51;125.40;;;59.53;;
20623;SDS011;10471;42.736;23.346;2023-11-21T01:19:17;108.30;;;57.40;;
20623;SDS011;10471;42.736;23.346;2023-11-21T01:21:42;102.23;;;54.10;;
20623;SDS011;10471;42.736;23.346;2023-11-21T01:24:08;119.87;;;57.23;;
20623;SDS011;10471;42.736;23.346;2023-11-21T01:26:34;132.83;;;64.43;;
20623;SDS011;10471;42.736;23.346;2023-11-21T01:28:59;120.20;;;53.33;;
20623;SDS011;10471;42.736;23.346;2023-11-21T01:31:24;110.13;;;50.90;;
20623;SDS011;10471;42.736;23.346;2023-11-21T01:33:54;99.00;;;46.30;;
20623;SDS011;10471;42.736;23.346;2023-11-21T01:36:20;106.63;;;48.73;;
20623;SDS011;10471;42.736;23.346;2023-11-21T01:38:46;106.47;;;49.33;;
20623;SDS011;10471;42.736;23.346;2023-11-21T01:41:13;111.73;;;53.07;;
20623;SDS011;10471;42.736;23.346;2023-11-21T01:43:39;107.70;;;50.40;;
20623;SDS011;10471;42.736;23.346;2023-11-21T01:46:05;113.53;;;50.40;;
20623;SDS011;10471;42.736;23.346;2023-11-21T01:48:31;107.50;;;49.07;;
20623;SDS011;10471;42.736;23.346;2023-11-21T01:50:58;101.17;;;47.90;;
20623;SDS011;10471;42.736;23.346;2023-11-21T01:53:24;113.67;;;52.00;;
20623;SDS011;10471;42.736;23.346;2023-11-21T01:55:51;146.13;;;69.40;;
20623;SDS011;10471;42.736;23.346;2023-11-21T01:58:18;144.83;;;69.30;;
20623;SDS011;10471;42.736;23.346;2023-11-21T02:00:44;126.47;;;59.87;;
20623;SDS011;10471;42.736;23.346;2023-11-21T02:03:10;123.73;;;59.07;;
20623;SDS011;10471;42.736;23.346;2023-11-21T02:05:35;123.00;;;58.53;;
20623;SDS011;10471;42.736;23.346;2023-11-21T02:08:01;115.03;;;54.87;;
20623;SDS011;10471;42.736;23.346;2023-11-21T02:10:28;118.00;;;57.93;;
20623;SDS011;10471;42.736;23.346;2023-11-21T02:12:54;127.60;;;60.87;;
20623;SDS011;10471;42.736;23.346;2023-11-21T02:15:21;126.43;;;59.87;;
20623;SDS011;10471;42.736;23.346;2023-11-21T02:17:48;151.57;;;74.53;;
20623;SDS011;10471;42.736;23.346;2023-11-21T02:20:17;124.97;;;61.10;;
20623;SDS011;10471;42.736;23.346;2023-11-21T02:22:44;140.30;;;70.37;;
20623;SDS011;10471;42.736;23.346;2023-11-21T02:25:23;138.40;;;69.87;;
20623;SDS011;10471;42.736;23.346;2023-11-21T02:27:55;155.27;;;75.67;;
20623;SDS011;10471;42.736;23.346;2023-11-21T02:30:21;142.90;;;73.30;;
20623;SDS011;10471;42.736;23.346;2023-11-21T02:32:47;142.27;;;76.90;;
20623;SDS011;10471;42.736;23.346;2023-11-21T02:35:14;140.47;;;73.47;;
20623;SDS011;10471;42.736;23.346;2023-11-21T02:37:40;135.93;;;69.80;;
20623;SDS011;10471;42.736;23.346;2023-11-21T02:40:08;121.47;;;62.47;;
20623;SDS011;10471;42.736;23.346;2023-11-21T02:42:34;123.77;;;61.90;;
20623;SDS011;10471;42.736;23.346;2023-11-21T02:45:00;121.90;;;62.67;;
20623;SDS011;10471;42.736;23.346;2023-11-21T02:47:25;123.83;;;63.43;;
20623;SDS011;10471;42.736;23.346;2023-11-21T02:49:51;124.43;;;62.53;;
20623;SDS011;10471;42.736;23.346;2023-11-21T02:52:17;111.03;;;54.77;;
20623;SDS011;10471;42.736;23.346;2023-11-21T02:54:44;103.70;;;53.67;;
20623;SDS011;10471;42.736;23.346;2023-11-21T02:57:09;104.60;;;52.83;;
20623;SDS011;10471;42.736;23.346;2023-11-21T02:59:35;100.57;;;54.50;;
20623;SDS011;10471;42.736;23.346;2023-11-21T03:02:00;106.90;;;54.97;;
20623;SDS011;10471;42.736;23.346;2023-11-21T03:04:26;112.20;;;59.33;;
20623;SDS011;10471;42.736;23.346;2023-11-21T03:06:51;111.60;;;58.33;;
20623;SDS011;10471;42.736;23.346;2023-11-21T03:09:16;117.23;;;59.53;;
20623;SDS011;10471;42.736;23.346;2023-11-21T03:11:42;119.30;;;59.60;;
20623;SDS011;10471;42.736;23.346;2023-11-21T03:14:07;123.53;;;61.83;;
20623;SDS011;10471;42.736;23.346;2023-11-21T03:16:33;142.50;;;71.47;;
20623;SDS011;10471;42.736;23.346;2023-11-21T03:18:58;127.53;;;63.33;;
20623;SDS011;10471;42.736;23.346;2023-11-21T03:21:24;118.07;;;59.90;;
20623;SDS011;10471;42.736;23.346;2023-11-21T03:23:51;105.37;;;55.40;;
20623;SDS011;10471;42.736;23.346;2023-11-21T03:26:17;117.40;;;57.97;;
20623;SDS011;10471;42.736;23.346;2023-11-21T03:28:43;97.87;;;50.43;;
20623;SDS011;10471;42.736;23.346;2023-11-21T03:31:08;98.97;;;50.53;;
20623;SDS011;10471;42.736;23.346;2023-11-21T03:33:36;113.90;;;56.73;;
20623;SDS011;10471;42.736;23.346;2023-11-21T03:36:02;115.77;;;55.57;;
20623;SDS011;10471;42.736;23.346;2023-11-21T03:38:28;94.23;;;49.27;;
20623;SDS011;10471;42.736;23.346;2023-11-21T03:40:54;84.00;;;46.27;;
20623;SDS011;10471;42.736;23.346;2023-11-21T03:43:19;72.83;;;39.47;;
20623;SDS011;10471;42.736;23.346;2023-11-21T03:45:45;72.47;;;39.40;;
20623;SDS011;10471;42.736;23.346;2023-11-21T03:48:12;80.23;;;41.20;;
20623;SDS011;10471;42.736;23.346;2023-11-21T03:50:38;77.47;;;39.90;;
20623;SDS011;10471;42.736;23.346;2023-11-21T03:53:03;73.43;;;37.67;;
20623;SDS011;10471;42.736;23.346;2023-11-21T03:55:29;81.93;;;41.60;;
20623;SDS011;10471;42.736;23.346;2023-11-21T03:57:56;84.00;;;43.37;;
20623;SDS011;10471;42.736;23.346;2023-11-21T04:00:22;88.23;;;45.13;;
20623;SDS011;10471;42.736;23.346;2023-11-21T04:02:47;82.37;;;43.40;;
20623;SDS011;10471;42.736;23.346;2023-11-21T04:05:13;80.47;;;43.07;;
20623;SDS011;10471;42.736;23.346;2023-11-21T04:07:38;75.97;;;43.07;;
20623;SDS011;10471;42.736;23.346;2023-11-21T04:10:04;75.17;;;42.80;;
20623;SDS011;10471;42.736;23.346;2023-11-21T04:12:33;75.50;;;41.57;;
20623;SDS011;10471;42.736;23.346;2023-11-21T04:14:58;71.60;;;39.47;;
20623;SDS011;10471;42.736;23.346;2023-11-21T04:17:24;72.27;;;40.37;;
20623;SDS011;10471;42.736;23.346;2023-11-21T04:19:49;65.50;;;38.13;;
20623;SDS011;10471;42.736;23.346;2023-11-21T04:22:15;70.80;;;38.80;;
20623;SDS011;10471;42.736;23.346;2023-11-21T04:24:40;73.40;;;39.07;;
20623;SDS011;10471;42.736;23.346;2023-11-21T04:27:05;60.77;;;33.13;;
20623;SDS011;10471;42.736;23.346;2023-11-21T04:29:31;64.13;;;34.33;;
20623;SDS011;10471;42.736;23.346;2023-11-21T04:31:56;67.27;;;35.33;;
20623;SDS011;10471;42.736;23.346;2023-11-21T04:34:21;62.93;;;34.40;;
20623;SDS011;10471;42.736;23.346;2023-11-21T04:36:47;57.30;;;33.90;;
20623;SDS011;10471;42.736;23.346;2023-11-21T04:39:12;56.50;;;32.53;;
20623;SDS011;10471;42.736;23.346;2023-11-21T04:41:38;60.20;;;32.33;;
20623;SDS011;10471;42.736;23.346;2023-11-21T04:44:05;58.20;;;33.80;;
20623;SDS011;10471;42.736;23.346;2023-11-21T04:46:31;65.20;;;34.27;;
20623;SDS011;10471;42.736;23.346;2023-11-21T04:48:57;61.13;;;34.03;;
20623;SDS011;10471;42.736;23.346;2023-11-21T04:51:23;62.23;;;34.90;;
20623;SDS011;10471;42.736;23.346;2023-11-21T04:53:48;66.73;;;37.17;;
20623;SDS011;10471;42.736;23.346;2023-11-21T04:56:14;75.30;;;39.20;;
20623;SDS011;10471;42.736;23.346;2023-11-21T04:58:41;80.97;;;42.90;;
20623;SDS011;10471;42.736;23.346;2023-11-21T05:01:09;89.57;;;45.97;;
20623;SDS011;10471;42.736;23.346;2023-11-21T05:03:35;94.03;;;49.30;;
20623;SDS011;10471;42.736;23.346;2023-11-21T05:06:00;84.80;;;45.63;;
20623;SDS011;10471;42.736;23.346;2023-11-21T05:08:26;97.73;;;44.97;;
20623;SDS011;10471;42.736;23.346;2023-11-21T05:10:52;80.93;;;46.47;;
20623;SDS011;10471;42.736;23.346;2023-11-21T05:13:18;98.23;;;50.33;;
20623;SDS011;10471;42.736;23.346;2023-11-21T05:15:45;84.07;;;44.77;;
20623;SDS011;10471;42.736;23.346;2023-11-21T05:18:10;80.57;;;45.63;;
20623;SDS011;10471;42.736;23.346;2023-11-21T05:20:36;83.37;;;45.13;;
20623;SDS011;10471;42.736;23.346;2023-11-21T05:23:03;90.50;;;45.67;;
20623;SDS011;10471;42.736;23.346;2023-11-21T05:25:28;78.83;;;43.53;;
20623;SDS011;10471;42.736;23.346;2023-11-21T05:27:53;85.80;;;46.03;;
20623;SDS011;10471;42.736;23.346;2023-11-21T05:30:26;84.90;;;45.20;;
20623;SDS011;10471;42.736;23.346;2023-11-21T05:32:51;87.10;;;46.57;;
20623;SDS011;10471;42.736;23.346;2023-11-21T05:35:17;93.10;;;51.70;;
20623;SDS011;10471;42.736;23.346;2023-11-21T05:37:43;101.73;;;56.37;;
20623;SDS011;10471;42.736;23.346;2023-11-21T05:40:09;134.87;;;67.50;;
20623;SDS011;10471;42.736;23.346;2023-11-21T05:42:35;121.67;;;61.63;;
20623;SDS011;10471;42.736;23.346;2023-11-21T05:45:00;110.67;;;58.43;;
20623;SDS011;10471;42.736;23.346;2023-11-21T05:47:42;102.37;;;55.47;;
20623;SDS011;10471;42.736;23.346;2023-11-21T05:50:11;99.57;;;50.00;;
20623;SDS011;10471;42.736;23.346;2023-11-21T05:52:39;97.03;;;49.20;;
20623;SDS011;10471;42.736;23.346;2023-11-21T05:55:06;79.40;;;43.83;;
20623;SDS011;10471;42.736;23.346;2023-11-21T05:57:35;66.97;;;35.90;;
20623;SDS011;10471;42.736;23.346;2023-11-21T06:00:08;76.23;;;42.20;;
20623;SDS011;10471;42.736;23.346;2023-11-21T06:02:37;108.37;;;53.33;;
20623;SDS011;10471;42.736;23.346;2023-11-21T06:05:03;66.67;;;36.40;;
20623;SDS011;10471;42.736;23.346;2023-11-21T06:07:29;62.27;;;34.10;;
20623;SDS011;10471;42.736;23.346;2023-11-21T06:09:55;56.77;;;33.17;;
20623;SDS011;10471;42.736;23.346;2023-11-21T06:12:20;56.13;;;32.47;;
20623;SDS011;10471;42.736;23.346;2023-11-21T06:14:46;64.57;;;34.73;;
20623;SDS011;10471;42.736;23.346;2023-11-21T06:17:13;67.40;;;36.83;;
20623;SDS011;10471;42.736;23.346;2023-11-21T06:19:38;73.13;;;38.33;;
20623;SDS011;10471;42.736;23.346;2023-11-21T06:22:04;71.77;;;39.20;;
20623;SDS011;10471;42.736;23.346;2023-11-21T06:24:31;79.50;;;42.87;;
20623;SDS011;10471;42.736;23.346;2023-11-21T06:26:56;69.10;;;39.93;;
20623;SDS011;10471;42.736;23.346;2023-11-21T06:29:22;75.17;;;43.73;;
20623;SDS011;10471;42.736;23.346;2023-11-21T06:31:47;80.30;;;39.83;;
20623;SDS011;10471;42.736;23.346;2023-11-21T06:34:13;70.80;;;38.73;;
20623;SDS011;10471;42.736;23.346;2023-11-21T06:36:38;64.90;;;38.03;;
20623;SDS011;10471;42.736;23.346;2023-11-21T06:39:04;68.13;;;39.07;;
20623;SDS011;10471;42.736;23.346;2023-11-21T06:41:32;78.57;;;42.43;;
20623;SDS011;10471;42.736;23.346;2023-11-21T06:43:58;76.37;;;39.43;;
20623;SDS011;10471;42.736;23.346;2023-11-21T06:46:24;64.37;;;35.83;;
20623;SDS011;10471;42.736;23.346;2023-11-21T06:48:49;67.83;;;36.17;;
20623;SDS011;10471;42.736;23.346;2023-11-21T06:51:15;70.43;;;37.37;;
20623;SDS011;10471;42.736;23.346;2023-11-21T06:53:41;64.23;;;36.97;;
20623;SDS011;10471;42.736;23.346;2023-11-21T06:56:19;69.33;;;36.67;;
20623;SDS011;10471;42.736;23.346;2023-11-21T06:58:45;70.93;;;37.63;;
20623;SDS011;10471;42.736;23.346;2023-11-21T07:01:11;71.93;;;39.40;;
20623;SDS011;10471;42.736;23.346;2023-11-21T07:03:38;74.77;;;42.20;;
20623;SDS011;10471;42.736;23.346;2023-11-21T07:06:03;74.87;;;42.57;;
20623;SDS011;10471;42.736;23.346;2023-11-21T07:08:29;82.03;;;42.00;;
20623;SDS011;10471;42.736;23.346;2023-11-21T07:10:54;77.63;;;42.43;;
20623;SDS011;10471;42.736;23.346;2023-11-21T07:13:20;72.03;;;40.97;;
20623;SDS011;10471;42.736;23.346;2023-11-21T07:15:46;78.37;;;44.13;;
20623;SDS011;10471;42.736;23.346;2023-11-21T07:18:12;67.80;;;36.30;;
20623;SDS011;10471;42.736;23.346;2023-11-21T07:20:38;53.67;;;30.97;;
20623;SDS011;10471;42.736;23.346;2023-11-21T07:23:03;50.57;;;30.63;;
20623;SDS011;10471;42.736;23.346;2023-11-21T07:25:29;53.30;;;32.23;;
20623;SDS011;10471;42.736;23.346;2023-11-21T07:27:54;69.77;;;37.23;;
20623;SDS011;10471;42.736;23.346;2023-11-21T07:30:20;62.17;;;32.87;;
20623;SDS011;10471;42.736;23.346;2023-11-21T07:32:47;68.57;;;38.83;;
20623;SDS011;10471;42.736;23.346;2023-11-21T07:35:13;95.13;;;44.97;;
20623;SDS011;10471;42.736;23.346;2023-11-21T07:37:38;69.47;;;40.20;;
20623;SDS011;10471;42.736;23.346;2023-11-21T07:40:04;73.23;;;39.73;;
20623;SDS011;10471;42.736;23.346;2023-11-21T07:42:30;78.13;;;40.50;;
20623;SDS011;10471;42.736;23.346;2023-11-21T07:44:56;67.90;;;37.60;;
20623;SDS011;10471;42.736;23.346;2023-11-21T07:47:21;68.67;;;36.10;;
20623;SDS011;10471;42.736;23.346;2023-11-21T07:49:47;62.17;;;35.47;;
20623;SDS011;10471;42.736;23.346;2023-11-21T07:52:13;61.07;;;31.67;;
20623;SDS011;10471;42.736;23.346;2023-11-21T07:54:41;58.40;;;31.00;;
20623;SDS011;10471;42.736;23.346;2023-11-21T07:57:06;53.73;;;31.77;;
20623;SDS011;10471;42.736;23.346;2023-11-21T07:59:32;56.10;;;28.63;;
20623;SDS011;10471;42.736;23.346;2023-11-21T08:01:58;47.63;;;29.63;;
20623;SDS011;10471;42.736;23.346;2023-11-21T08:04:23;51.33;;;28.93;;
20623;SDS011;10471;42.736;23.346;2023-11-21T08:06:48;56.37;;;31.13;;
20623;SDS011;10471;42.736;23.346;2023-11-21T08:09:14;53.13;;;29.50;;
20623;SDS011;10471;42.736;23.346;2023-11-21T08:11:42;52.50;;;29.30;;
20623;SDS011;10471;42.736;23.346;2023-11-21T08:14:07;54.13;;;29.40;;
20623;SDS011;10471;42.736;23.346;2023-11-21T08:16:33;45.67;;;26.60;;
20623;SDS011;10471;42.736;23.346;2023-11-21T08:18:58;44.47;;;27.20;;
20623;SDS011;10471;42.736;23.346;2023-11-21T08:21:23;45.37;;;26.87;;
20623;SDS011;10471;42.736;23.346;2023-11-21T08:23:49;54.93;;;30.10;;
20623;SDS011;10471;42.736;23.346;2023-11-21T08:26:19;47.07;;;26.87;;
20623;SDS011;10471;42.736;23.346;2023-11-21T08:28:45;46.57;;;24.77;;
20623;SDS011;10471;42.736;23.346;2023-11-21T08:31:12;42.47;;;22.23;;
20623;SDS011;10471;42.736;23.346;2023-11-21T08:33:37;46.27;;;23.83;;
20623;SDS011;10471;42.736;23.346;2023-11-21T08:36:06;52.53;;;28.17;;
20623;SDS011;10471;42.736;23.346;2023-11-21T08:38:32;48.10;;;28.90;;
20623;SDS011;10471;42.736;23.346;2023-11-21T08:40:58;49.03;;;29.10;;
20623;SDS011;10471;42.736;23.346;2023-11-21T08:43:25;44.80;;;24.87;;
20623;SDS011;10471;42.736;23.346;2023-11-21T08:45:52;50.63;;;26.90;;
20623;SDS011;10471;42.736;23.346;2023-11-21T08:48:17;41.27;;;25.17;;
20623;SDS011;10471;42.736;23.346;2023-11-21T08:50:43;43.70;;;25.17;;
20623;SDS011;10471;42.736;23.346;2023-11-21T08:53:08;42.73;;;24.43;;
20623;SDS011;10471;42.736;23.346;2023-11-21T08:55:36;41.57;;;24.27;;
20623;SDS011;10471;42.736;23.346;2023-11-21T08:58:02;39.20;;;23.10;;
20623;SDS011;10471;42.736;23.346;2023-11-21T09:00:30;40.70;;;24.03;;
20623;SDS011;10471;42.736;23.346;2023-11-21T09:02:56;37.30;;;24.23;;
20623;SDS011;10471;42.736;23.346;2023-11-21T09:05:22;37.90;;;23.70;;
20623;SDS011;10471;42.736;23.346;2023-11-21T09:07:47;36.17;;;22.90;;
20623;SDS011;10471;42.736;23.346;2023-11-21T09:10:13;37.37;;;22.57;;
20623;SDS011;10471;42.736;23.346;2023-11-21T09:12:39;37.90;;;24.43;;
20623;SDS011;10471;42.736;23.346;2023-11-21T09:15:05;40.07;;;25.40;;
20623;SDS011;10471;42.736;23.346;2023-11-21T09:17:32;47.00;;;24.40;;
20623;SDS011;10471;42.736;23.346;2023-11-21T09:20:01;43.20;;;25.30;;
20623;SDS011;10471;42.736;23.346;2023-11-21T09:22:31;42.63;;;23.13;;
20623;SDS011;10471;42.736;23.346;2023-11-21T09:24:57;39.60;;;22.83;;
20623;SDS011;10471;42.736;23.346;2023-11-21T09:27:23;33.40;;;20.60;;
20623;SDS011;10471;42.736;23.346;2023-11-21T09:29:49;31.27;;;20.27;;
20623;SDS011;10471;42.736;23.346;2023-11-21T09:32:14;38.33;;;21.57;;
20623;SDS011;10471;42.736;23.346;2023-11-21T09:34:43;38.77;;;21.90;;
20623;SDS011;10471;42.736;23.346;2023-11-21T09:37:09;31.30;;;19.27;;
20623;SDS011;10471;42.736;23.346;2023-11-21T09:39:34;34.80;;;21.03;;
20623;SDS011;10471;42.736;23.346;2023-11-21T09:42:17;31.20;;;19.57;;
20623;SDS011;10471;42.736;23.346;2023-11-21T09:47:23;32.60;;;20.17;;
20623;SDS011;10471;42.736;23.346;2023-11-21T09:49:49;32.63;;;20.70;;
20623;SDS011;10471;42.736;23.346;2023-11-21T09:52:17;31.97;;;20.40;;
20623;SDS011;10471;42.736;23.346;2023-11-21T09:54:47;34.60;;;23.50;;
20623;SDS011;10471;42.736;23.346;2023-11-21T09:57:14;33.77;;;21.87;;
20623;SDS011;10471;42.736;23.346;2023-11-21T09:59:40;34.87;;;21.37;;
20623;SDS011;10471;42.736;23.346;2023-11-21T10:02:07;28.93;;;18.70;;
20623;SDS011;10471;42.736;23.346;2023-11-21T10:04:37;23.37;;;15.70;;
20623;SDS011;10471;42.736;23.346;2023-11-21T10:07:03;22.20;;;15.73;;
20623;SDS011;10471;42.736;23.346;2023-11-21T10:09:33;25.40;;;16.93;;
20623;SDS011;10471;42.736;23.346;2023-11-21T10:12:02;27.33;;;17.90;;
20623;SDS011;10471;42.736;23.346;2023-11-21T10:14:33;33.00;;;21.37;;
20623;SDS011;10471;42.736;23.346;2023-11-21T10:17:00;31.40;;;21.50;;
20623;SDS011;10471;42.736;23.346;2023-11-21T10:19:25;37.43;;;22.23;;
20623;SDS011;10471;42.736;23.346;2023-11-21T10:21:52;34.43;;;22.03;;
20623;SDS011;10471;42.736;23.346;2023-11-21T10:24:19;35.83;;;23.07;;
20623;SDS011;10471;42.736;23.346;2023-11-21T10:26:45;29.70;;;18.80;;
20623;SDS011;10471;42.736;23.346;2023-11-21T10:29:13;36.17;;;21.60;;
20623;SDS011;10471;42.736;23.346;2023-11-21T10:31:41;30.90;;;20.83;;
20623;SDS011;10471;42.736;23.346;2023-11-21T10:34:17;33.60;;;20.53;;
20623;SDS011;10471;42.736;23.346;2023-11-21T10:36:43;31.50;;;21.13;;
20623;SDS011;10471;42.736;23.346;2023-11-21T10:39:09;35.27;;;21.60;;
20623;SDS011;10471;42.736;23.346;2023-11-21T10:41:43;46.30;;;25.63;;
20623;SDS011;10471;42.736;23.346;2023-11-21T10:44:15;37.67;;;22.77;;
20623;SDS011;10471;42.736;23.346;2023-11-21T10:46:51;31.43;;;22.47;;
20623;SDS011;10471;42.736;23.346;2023-11-21T10:49:21;37.17;;;20.93;;
20623;SDS011;10471;42.736;23.346;2023-11-21T10:51:47;35.17;;;21.37;;
20623;SDS011;10471;42.736;23.346;2023-11-21T10:54:23;35.77;;;21.27;;
20623;SDS011;10471;42.736;23.346;2023-11-21T10:56:50;31.87;;;22.37;;
20623;SDS011;10471;42.736;23.346;2023-11-21T10:59:25;37.33;;;23.27;;
20623;SDS011;10471;42.736;23.346;2023-11-21T11:01:54;28.67;;;18.53;;
20623;SDS011;10471;42.736;23.346;2023-11-21T11:04:22;28.87;;;18.13;;
20623;SDS011;10471;42.736;23.346;2023-11-21T11:07:01;29.50;;;18.23;;
20623;SDS011;10471;42.736;23.346;2023-11-21T11:09:28;29.70;;;18.30;;
20623;SDS011;10471;42.736;23.346;2023-11-21T11:11:57;30.47;;;18.50;;
20623;SDS011;10471;42.736;23.346;2023-11-21T11:14:24;28.67;;;18.63;;
20623;SDS011;10471;42.736;23.346;2023-11-21T11:16:52;30.03;;;18.37;;
20623;SDS011;10471;42.736;23.346;2023-11-21T11:19:20;28.93;;;19.30;;
20623;SDS011;10471;42.736;23.346;2023-11-21T11:22:29;28.93;;;18.13;;
20623;SDS011;10471;42.736;23.346;2023-11-21T11:24:59;29.50;;;20.27;;
20623;SDS011;10471;42.736;23.346;2023-11-21T11:38:22;34.47;;;24.50;;
20623;SDS011;10471;42.736;23.346;2023-11-21T11:40:52;40.47;;;25.53;;
20623;SDS011;10471;42.736;23.346;2023-11-21T11:43:27;32.57;;;23.73;;
20623;SDS011;10471;42.736;23.346;2023-11-21T11:45:56;35.67;;;23.30;;
20623;SDS011;10471;42.736;23.346;2023-11-21T11:48:24;36.90;;;23.30;;
20623;SDS011;10471;42.736;23.346;2023-11-21T11:53:41;37.70;;;19.70;;
20623;SDS011;10471;42.736;23.346;2023-11-21T11:58:57;25.63;;;17.73;;
20623;SDS011;10471;42.736;23.346;2023-11-21T12:01:25;20.67;;;15.83;;
20623;SDS011;10471;42.736;23.346;2023-11-21T12:06:59;42.20;;;22.70;;
20623;SDS011;10471;42.736;23.346;2023-11-21T12:09:27;44.13;;;26.33;;
20623;SDS011;10471;42.736;23.346;2023-11-21T12:11:55;44.80;;;25.53;;
20623;SDS011;10471;42.736;23.346;2023-11-21T12:14:21;48.27;;;25.43;;
20623;SDS011;10471;42.736;23.346;2023-11-21T12:16:48;45.43;;;26.93;;
20623;SDS011;10471;42.736;23.346;2023-11-21T12:19:14;42.87;;;25.17;;
20623;SDS011;10471;42.736;23.346;2023-11-21T12:21:40;39.17;;;24.67;;
20623;SDS011;10471;42.736;23.346;2023-11-21T12:24:13;52.10;;;27.97;;
20623;SDS011;10471;42.736;23.346;2023-11-21T12:26:39;78.43;;;34.83;;
20623;SDS011;10471;42.736;23.346;2023-11-21T12:29:05;226.50;;;77.77;;
20623;SDS011;10471;42.736;23.346;2023-11-21T12:31:32;94.40;;;40.57;;
20623;SDS011;10471;42.736;23.346;2023-11-21T12:33:59;45.50;;;23.90;;
20623;SDS011;10471;42.736;23.346;2023-11-21T12:36:25;40.50;;;23.97;;
20623;SDS011;10471;42.736;23.346;2023-11-21T12:38:51;44.47;;;24.23;;
20623;SDS011;10471;42.736;23.346;2023-11-21T12:41:16;31.97;;;19.73;;
20623;SDS011;10471;42.736;23.346;2023-11-21T12:43:42;32.20;;;20.63;;
20623;SDS011;10471;42.736;23.346;2023-11-21T12:46:09;35.53;;;21.40;;
20623;SDS011;10471;42.736;23.346;2023-11-21T12:48:38;37.47;;;23.27;;
20623;SDS011;10471;42.736;23.346;2023-11-21T12:51:05;38.30;;;24.87;;
20623;SDS011;10471;42.736;23.346;2023-11-21T12:53:31;41.70;;;24.20;;
20623;SDS011;10471;42.736;23.346;2023-11-21T12:56:02;34.10;;;23.67;;
20623;SDS011;10471;42.736;23.346;2023-11-21T12:58:31;32.30;;;22.00;;
20623;SDS011;10471;42.736;23.346;2023-11-21T13:00:58;36.67;;;22.77;;
20623;SDS011;10471;42.736;23.346;2023-11-21T13:03:24;31.80;;;22.03;;
20623;SDS011;10471;42.736;23.346;2023-11-21T13:05:51;34.83;;;24.07;;
20623;SDS011;10471;42.736;23.346;2023-11-21T13:08:22;41.53;;;25.00;;
20623;SDS011;10471;42.736;23.346;2023-11-21T13:10:52;75.67;;;48.97;;
20623;SDS011;10471;42.736;23.346;2023-11-21T13:13:20;136.87;;;68.30;;
20623;SDS011;10471;42.736;23.346;2023-11-21T13:15:49;46.13;;;26.30;;
20623;SDS011;10471;42.736;23.346;2023-11-21T13:18:15;37.67;;;23.33;;
20623;SDS011;10471;42.736;23.346;2023-11-21T13:20:41;42.90;;;25.93;;
20623;SDS011;10471;42.736;23.346;2023-11-21T13:23:11;39.03;;;26.40;;
20623;SDS011;10471;42.736;23.346;2023-11-21T13:25:40;46.80;;;26.07;;
20623;SDS011;10471;42.736;23.346;2023-11-21T13:28:10;43.03;;;28.17;;
20623;SDS011;10471;42.736;23.346;2023-11-21T13:30:36;48.63;;;27.47;;
20623;SDS011;10471;42.736;23.346;2023-11-21T13:33:02;46.87;;;27.97;;
20623;SDS011;10471;42.736;23.346;2023-11-21T13:35:31;42.80;;;26.57;;
20623;SDS011;10471;42.736;23.346;2023-11-21T13:38:10;46.80;;;27.43;;
20623;SDS011;10471;42.736;23.346;2023-11-21T13:40:40;53.93;;;31.43;;
20623;SDS011;10471;42.736;23.346;2023-11-21T13:43:11;54.47;;;34.03;;
20623;SDS011;10471;42.736;23.346;2023-11-21T13:45:38;71.67;;;44.43;;
20623;SDS011;10471;42.736;23.346;2023-11-21T13:48:05;72.47;;;42.20;;
20623;SDS011;10471;42.736;23.346;2023-11-21T13:50:35;62.23;;;39.00;;
20623;SDS011;10471;42.736;23.346;2023-11-21T13:53:01;68.03;;;40.13;;
20623;SDS011;10471;42.736;23.346;2023-11-21T13:55:44;55.27;;;32.10;;
20623;SDS011;10471;42.736;23.346;2023-11-21T13:58:10;49.83;;;30.47;;
20623;SDS011;10471;42.736;23.346;2023-11-21T14:00:41;56.60;;;35.27;;
20623;SDS011;10471;42.736;23.346;2023-11-21T14:03:10;48.43;;;28.73;;
20623;SDS011;10471;42.736;23.346;2023-11-21T14:05:44;44.03;;;29.33;;
20623;SDS011;10471;42.736;23.346;2023-11-21T14:08:12;52.57;;;32.63;;
20623;SDS011;10471;42.736;23.346;2023-11-21T14:10:41;45.90;;;29.03;;
20623;SDS011;10471;42.736;23.346;2023-11-21T14:13:14;46.77;;;30.53;;
20623;SDS011;10471;42.736;23.346;2023-11-21T14:15:41;43.27;;;29.93;;
20623;SDS011;10471;42.736;23.346;2023-11-21T14:18:10;54.90;;;32.93;;
20623;SDS011;10471;42.736;23.346;2023-11-21T14:20:37;66.87;;;40.53;;
20623;SDS011;10471;42.736;23.346;2023-11-21T14:23:03;52.77;;;37.63;;
20623;SDS011;10471;42.736;23.346;2023-11-21T14:25:31;63.10;;;40.50;;
20623;SDS011;10471;42.736;23.346;2023-11-21T14:27:57;54.43;;;33.77;;
20623;SDS011;10471;42.736;23.346;2023-11-21T14:30:22;59.53;;;36.10;;
20623;SDS011;10471;42.736;23.346;2023-11-21T14:32:48;64.57;;;42.13;;